Saline County Regional Airport
KSUZ : now visible

Airfield :











YOU CAN JOIN US ON...

 
LOGIN :

Register | Disclaimer

   EN    FR    IT 

 









Legend :    VFR   Marginal VFR   IFR   Intensive IFR   Very Intensive IFR
Visi :
Ceiling :
>= 8 km
>= 3000ft
5 to 8 km
1000 to 3000 ft
1500m to 5 km
500 to 1000 ft
800 to 1500m
200 to 500 ft
< 800m
< 200 ft
Symbols :   Thunderstorms  Fog  Heavy snow  Heavy precipitations  Wind > 20 kt






- Airport Elevation : 390 ft


KSUZ - Saline County Regional

CURRENT METAR :
  • 050655Z AUTO 00000KT 10SM FEW038 SCT100 25/23 A2988 RMK A01

EXPIRED METARs :
  • 050635Z AUTO 00000KT 10SM BKN100 26/23 A2988 RMK A01
  • 050615Z AUTO 24003KT 10SM FEW039 OVC100 26/23 A2988 RMK A01
  • 050555Z AUTO 22004KT 10SM FEW039 SCT100 26/23 A2988 RMK A01
  • 050535Z AUTO 21003KT 10SM FEW037 25/23 A2987 RMK A01
  • 050515Z AUTO 21004KT 10SM CLR 26/23 A2987 RMK A01
  • 050455Z AUTO 00000KT 10SM FEW100 26/23 A2987 RMK A01
  • 050435Z AUTO 21004KT 10SM FEW038 FEW090 27/23 A2987 RMK A01
  • 050415Z AUTO 24004KT 10SM FEW038 SCT090 27/23 A2987 RMK A01

TAF N/A
KZME FIR / North America



MET'MAP, your aeronautical weather chart ! - Copyright ORBIFLY December 2007 - Disclaimer

ORBIFLY MET'MAP TEAM :

Programming & Development : Alexandra Zaïnal
Concept & original design : Baudouin d'Aumeries
Assistance for programming : Marc-Olivier Méhu
Technical & hardware support : Manuel Goepfert

Contact : metmap@orbifly.com




SOURCES & CREDITS :

   NOAA       Earth
Advisory